Time;durP1;ratioP1;P1;durP2;ratioP2;P2;SDS_P1;SDS_P2;PMS_P1;PMS_P2;Temp;Humidity;BMP_temperature;BMP_pressure;BME280_temperature;BME280_humidity;BME280_pressure;Samples;Min_cycle;Max_cycle;Signal;HPM_P1;HPM_P2
2023/04/20 00:01:23;;;;;;;12.20;5.45;;;;;;;12.99;57.71;97932.84;4457090;32;20145;-77
2023/04/20 00:03:50;;;;;;;11.27;5.53;;;;;;;13.40;56.34;97933.19;4456591;32;20084;-77
2023/04/20 00:06:20;;;;;;;12.15;5.37;;;;;;;13.38;55.68;97935.03;4456973;32;20082;-77
2023/04/20 00:08:47;;;;;;;13.02;5.70;;;;;;;12.86;57.42;97929.22;4456841;32;20433;-77
2023/04/20 00:11:14;;;;;;;11.50;5.28;;;;;;;12.81;57.95;97931.25;4456407;32;20161;-77
2023/04/20 00:13:41;;;;;;;12.63;5.22;;;;;;;13.13;56.94;97929.50;4456345;32;20153;-77
2023/04/20 00:16:08;;;;;;;15.27;5.90;;;;;;;13.04;56.31;97930.84;4456946;32;20077;-77
2023/04/20 00:18:35;;;;;;;13.45;5.57;;;;;;;12.95;56.74;97926.97;4456564;32;20105;-77
2023/04/20 00:21:02;;;;;;;14.73;6.03;;;;;;;12.71;57.08;97929.16;4456996;32;20105;-77
2023/04/20 00:23:29;;;;;;;14.77;5.97;;;;;;;13.52;55.14;97931.69;4456772;32;20108;-77
2023/04/20 00:25:56;;;;;;;14.23;6.30;;;;;;;13.25;55.84;97926.25;4456478;32;20077;-77
2023/04/20 00:28:23;;;;;;;16.10;6.82;;;;;;;12.69;58.23;97930.97;4456762;32;20112;-77
2023/04/20 00:30:50;;;;;;;13.77;6.60;;;;;;;12.81;58.31;97926.06;4456877;32;20101;-77
2023/04/20 00:33:17;;;;;;;14.45;6.22;;;;;;;12.60;59.00;97926.28;4456432;32;20167;-77
2023/04/20 00:35:44;;;;;;;14.73;6.57;;;;;;;12.61;59.02;97917.59;4456840;32;20154;-77
2023/04/20 00:38:11;;;;;;;14.00;6.80;;;;;;;12.31;60.63;97914.03;4456550;32;20105;-77
2023/04/20 00:40:38;;;;;;;14.68;7.30;;;;;;;11.80;62.88;97918.34;4456455;32;20101;-77
2023/04/20 00:43:11;;;;;;;14.70;7.05;;;;;;;11.68;63.05;97921.50;4456729;32;20084;-77
2023/04/20 00:45:38;;;;;;;14.93;7.28;;;;;;;11.46;64.09;97919.13;4442452;32;20115;-77
2023/04/20 00:48:06;;;;;;;15.32;7.25;;;;;;;11.76;63.99;97916.78;4456555;32;20093;-77
2023/04/20 00:50:33;;;;;;;14.38;6.90;;;;;;;11.74;64.08;97916.88;4442798;32;20418;-77
2023/04/20 00:53:01;;;;;;;14.75;7.50;;;;;;;11.82;64.47;97916.53;4442338;32;20100;-77
2023/04/20 00:55:29;;;;;;;15.48;6.90;;;;;;;11.37;66.48;97916.97;4442699;32;20154;-77
2023/04/20 00:57:56;;;;;;;16.98;6.93;;;;;;;11.50;65.88;97925.84;4456551;32;20165;-77
2023/04/20 01:00:24;;;;;;;18.70;7.50;;;;;;;11.71;64.36;97916.19;4456349;32;20097;-77
2023/04/20 01:02:51;;;;;;;16.60;7.22;;;;;;;11.84;63.64;97912.94;4456399;32;20137;-77
2023/04/20 01:05:18;;;;;;;16.23;7.62;;;;;;;11.66;64.71;97919.00;4456432;32;20085;-77
2023/04/20 01:07:45;;;;;;;21.92;8.75;;;;;;;11.99;63.11;97915.66;4456103;32;20135;-77
2023/04/20 01:10:12;;;;;;;15.20;7.07;;;;;;;12.26;61.52;97916.88;4456376;32;20141;-77
2023/04/20 01:12:39;;;;;;;16.60;7.10;;;;;;;12.07;61.64;97914.38;4456505;32;20099;-77
2023/04/20 01:15:07;;;;;;;17.02;8.23;;;;;;;12.29;60.96;97914.13;4456164;32;20424;-77
2023/04/20 01:17:38;;;;;;;17.08;7.65;;;;;;;11.93;61.72;97913.41;4456522;32;20085;-77
2023/04/20 01:20:13;;;;;;;17.55;8.18;;;;;;;12.05;61.48;97907.63;4456539;32;20461;-77
2023/04/20 01:22:45;;;;;;;17.80;7.70;;;;;;;11.78;62.04;97907.22;4456207;32;20084;-77
2023/04/20 01:25:12;;;;;;;16.30;7.32;;;;;;;12.22;60.58;97910.16;4455341;32;20148;-77
2023/04/20 01:27:39;;;;;;;18.95;8.02;;;;;;;13.19;57.20;97909.31;4456017;32;20109;-76
2023/04/20 01:30:06;;;;;;;16.73;7.53;;;;;;;13.01;57.36;97911.13;4456434;32;20150;-77
2023/04/20 01:32:33;;;;;;;16.52;6.78;;;;;;;13.26;56.74;97910.63;4456359;32;20080;-77
2023/04/20 01:35:02;;;;;;;16.10;7.93;;;;;;;12.77;58.04;97909.88;4455978;32;20440;-77
2023/04/20 01:37:29;;;;;;;15.85;7.28;;;;;;;13.02;57.46;97909.38;4456416;32;20120;-77
2023/04/20 01:39:56;;;;;;;17.10;8.07;;;;;;;12.75;58.21;97917.69;4456135;32;20092;-77
2023/04/20 01:42:23;;;;;;;15.02;7.45;;;;;;;12.52;58.98;97914.66;4456040;32;20160;-77
2023/04/20 01:44:50;;;;;;;15.55;7.30;;;;;;;12.38;59.30;97912.81;4456136;32;20141;-77
2023/04/20 01:47:17;;;;;;;15.75;7.50;;;;;;;12.91;57.15;97911.72;4456287;32;20427;-77
2023/04/20 01:49:45;;;;;;;15.27;7.22;;;;;;;12.84;57.42;97910.34;4455788;32;20143;-77
2023/04/20 01:52:11;;;;;;;16.70;7.40;;;;;;;12.65;57.71;97911.38;4456244;32;20080;-77
2023/04/20 01:54:38;;;;;;;16.12;7.47;;;;;;;12.66;58.13;97904.44;4456250;32;20078;-77
2023/04/20 01:57:05;;;;;;;17.42;8.07;;;;;;;12.69;57.90;97899.91;4455798;32;20097;-77
2023/04/20 01:59:32;;;;;;;16.37;7.75;;;;;;;12.70;57.47;97901.59;4456073;32;20111;-77
2023/04/20 02:01:59;;;;;;;16.02;8.00;;;;;;;12.84;57.13;97898.25;4456314;32;20077;-77
2023/04/20 02:04:26;;;;;;;18.10;7.90;;;;;;;12.66;58.01;97907.03;4455677;32;20098;-77
2023/04/20 02:06:53;;;;;;;18.27;8.35;;;;;;;12.65;57.84;97902.72;4456153;32;20375;-77
2023/04/20 02:09:20;;;;;;;17.05;8.20;;;;;;;12.75;57.65;97903.91;4456002;32;20096;-77
2023/04/20 02:11:47;;;;;;;17.40;7.97;;;;;;;12.70;57.99;97895.56;4455795;32;20446;-77
2023/04/20 02:14:14;;;;;;;16.75;7.70;;;;;;;12.54;58.64;97899.88;4456057;32;20138;-77
2023/04/20 02:16:41;;;;;;;16.85;8.10;;;;;;;12.66;58.03;97900.09;4455620;32;20341;-77
2023/04/20 02:19:08;;;;;;;18.05;8.43;;;;;;;12.74;57.61;97902.25;4455891;32;20105;-77
2023/04/20 02:21:35;;;;;;;17.05;8.27;;;;;;;12.92;56.82;97903.03;4456053;32;20085;-77
2023/04/20 02:24:02;;;;;;;16.83;8.05;;;;;;;12.53;57.97;97912.00;4455527;32;20085;-77
2023/04/20 02:26:29;;;;;;;14.95;7.22;;;;;;;12.50;58.20;97908.75;4455995;32;20089;-77
2023/04/20 02:28:56;;;;;;;18.45;8.13;;;;;;;12.43;58.51;97911.63;4455783;32;20097;-77
2023/04/20 02:31:23;;;;;;;18.33;8.52;;;;;;;12.80;57.57;97907.09;4455625;32;20084;-77
2023/04/20 02:33:50;;;;;;;18.23;7.65;;;;;;;12.72;57.23;97904.94;4455851;32;20107;-77
2023/04/20 02:36:17;;;;;;;19.62;8.77;;;;;;;12.88;56.47;97909.28;4455599;32;20143;-77
2023/04/20 02:38:44;;;;;;;15.77;7.82;;;;;;;12.94;55.94;97901.19;4455362;32;20435;-77
2023/04/20 02:41:11;;;;;;;16.95;8.25;;;;;;;13.10;55.40;97906.38;4455755;32;20089;-77
2023/04/20 02:43:38;;;;;;;18.27;8.35;;;;;;;12.75;55.78;97904.75;4455703;32;20073;-77
2023/04/20 02:46:06;;;;;;;17.20;8.18;;;;;;;12.62;56.76;97902.91;4455375;32;20086;-77
2023/04/20 02:48:33;;;;;;;17.80;8.25;;;;;;;12.50;57.25;97899.22;4455658;32;20112;-77
2023/04/20 02:51:00;;;;;;;16.67;7.72;;;;;;;12.27;57.89;97899.59;4455772;32;20077;-77
2023/04/20 02:53:27;;;;;;;17.90;8.68;;;;;;;12.57;57.41;97913.50;4455144;32;20069;-77
2023/04/20 02:55:54;;;;;;;17.45;8.57;;;;;;;12.98;55.68;97915.66;4455614;32;20154;-77
2023/04/20 02:58:20;;;;;;;17.48;8.10;;;;;;;12.16;58.12;97907.91;4455514;32;20111;-77
2023/04/20 03:00:47;;;;;;;17.77;8.93;;;;;;;12.23;57.96;97903.22;4455242;32;20080;-77
2023/04/20 03:03:14;;;;;;;17.33;7.95;;;;;;;12.32;58.31;97906.19;4455418;32;20432;-77
2023/04/20 03:05:42;;;;;;;17.98;7.95;;;;;;;12.43;57.28;97903.88;4455043;32;20097;-77
2023/04/20 03:08:09;;;;;;;17.33;7.85;;;;;;;12.44;56.05;97905.56;4455260;32;20100;-77
2023/04/20 03:10:36;;;;;;;16.42;8.27;;;;;;;12.20;57.16;97906.81;4455195;32;20085;-77
2023/04/20 03:13:03;;;;;;;18.05;8.15;;;;;;;11.75;57.95;97904.78;4454994;32;20104;-77
2023/04/20 03:15:30;;;;;;;18.73;8.68;;;;;;;11.79;57.93;97908.88;4455313;32;20093;-77
2023/04/20 03:17:57;;;;;;;19.87;7.78;;;;;;;12.42;56.42;97907.38;4455307;32;20093;-77
2023/04/20 03:20:24;;;;;;;18.73;8.80;;;;;;;11.97;57.48;97904.56;4454883;32;20766;-77
2023/04/20 03:22:50;;;;;;;17.67;8.50;;;;;;;12.28;56.71;97899.50;4455133;32;20078;-77
2023/04/20 03:25:18;;;;;;;18.40;8.15;;;;;;;13.10;53.06;97908.97;4455169;32;20142;-77
2023/04/20 03:27:45;;;;;;;16.15;7.53;;;;;;;12.23;54.98;97901.50;4454818;32;20485;-77
2023/04/20 03:30:13;;;;;;;18.87;8.10;;;;;;;12.48;54.23;97908.00;4454990;32;20099;-77
2023/04/20 03:32:40;;;;;;;15.65;6.90;;;;;;;12.40;53.90;97910.97;4455021;32;20081;-77
2023/04/20 03:35:08;;;;;;;17.10;7.22;;;;;;;12.19;54.39;97909.50;4454657;32;20108;-77
2023/04/20 03:37:36;;;;;;;14.95;7.30;;;;;;;11.83;55.33;97906.13;4455025;32;20080;-77
2023/04/20 03:40:05;;;;;;;14.77;7.22;;;;;;;12.19;53.88;97902.56;4454892;32;20160;-77
2023/04/20 03:42:32;;;;;;;15.75;6.60;;;;;;;11.40;55.27;97902.19;4454524;32;20415;-77
2023/04/20 03:44:59;;;;;;;14.65;6.72;;;;;;;11.53;55.22;97907.59;4454762;32;20086;-77
2023/04/20 03:47:26;;;;;;;15.15;6.43;;;;;;;11.56;55.20;97917.75;4454852;32;20093;-76
2023/04/20 03:49:53;;;;;;;14.65;6.57;;;;;;;11.32;56.20;97908.62;4456184;32;20431;-77
2023/04/20 03:52:20;;;;;;;15.77;7.03;;;;;;;10.82;57.73;97909.25;4457184;32;20104;-77
2023/04/20 03:54:47;;;;;;;15.88;6.85;;;;;;;10.59;58.38;97908.53;4456611;32;20459;-77
2023/04/20 03:57:14;;;;;;;15.20;6.25;;;;;;;10.59;58.41;97899.97;4457052;32;20092;-77
2023/04/20 03:59:41;;;;;;;14.85;7.00;;;;;;;10.99;57.65;97906.72;4456913;32;20443;-77
2023/04/20 04:02:09;;;;;;;16.80;7.75;;;;;;;10.74;58.46;97909.59;4456779;32;20581;-77
2023/04/20 04:04:36;;;;;;;18.35;8.40;;;;;;;9.73;62.30;97916.53;4456807;32;20120;-77
2023/04/20 04:07:04;;;;;;;18.48;7.90;;;;;;;10.73;60.64;97916.47;4457036;32;20153;-77
2023/04/20 04:09:31;;;;;;;16.65;7.40;;;;;;;11.11;60.52;97921.63;4456409;32;20096;-77
2023/04/20 04:11:57;;;;;;;15.02;6.80;;;;;;;12.01;56.88;97921.59;4456849;32;20081;-77
2023/04/20 04:14:24;;;;;;;14.70;6.78;;;;;;;12.24;54.91;97915.28;4456860;32;20489;-76
2023/04/20 04:16:51;;;;;;;17.10;6.55;;;;;;;12.40;53.36;97916.12;4456548;32;20085;-77
2023/04/20 04:19:18;;;;;;;15.27;6.93;;;;;;;11.84;53.84;97904.37;4456700;32;20106;-77
2023/04/20 04:21:45;;;;;;;16.05;6.35;;;;;;;11.96;54.39;97908.91;4456953;32;20069;-77
2023/04/20 04:24:13;;;;;;;17.20;7.20;;;;;;;11.86;55.34;97916.28;4456405;32;20094;-77
2023/04/20 04:26:39;;;;;;;14.23;6.55;;;;;;;11.86;56.05;97921.47;4456854;32;20084;-77
2023/04/20 04:29:06;;;;;;;14.50;6.57;;;;;;;11.81;55.30;97912.28;4456758;32;20154;-77
2023/04/20 04:31:33;;;;;;;15.65;6.70;;;;;;;11.93;54.92;97927.19;4456552;32;20074;-77
2023/04/20 04:34:01;;;;;;;16.30;6.40;;;;;;;12.57;53.09;97920.44;4456768;32;20085;-77
2023/04/20 04:36:27;;;;;;;16.65;6.55;;;;;;;12.54;52.81;97926.59;4456754;32;20089;-77
2023/04/20 04:38:55;;;;;;;14.27;6.30;;;;;;;12.29;53.80;97929.63;4456279;32;20146;-77
2023/04/20 04:41:23;;;;;;;14.70;6.45;;;;;;;12.49;53.32;97928.59;4456918;32;20069;-77
2023/04/20 04:43:50;;;;;;;15.48;6.82;;;;;;;12.47;53.33;97930.44;4456573;32;20416;-77
2023/04/20 04:46:17;;;;;;;16.87;6.47;;;;;;;12.25;54.60;97930.72;4456271;32;20097;-77
2023/04/20 04:48:45;;;;;;;14.55;6.80;;;;;;;12.84;54.41;97933.66;4456692;32;20085;-77
2023/04/20 04:51:12;;;;;;;14.85;6.57;;;;;;;13.28;52.00;97939.03;4456386;32;20093;-77
2023/04/20 04:53:43;;;;;;;14.20;6.75;;;;;;;13.31;52.61;97933.72;4456653;32;20150;-77
2023/04/20 04:56:12;;;;;;;14.85;7.22;;;;;;;13.68;52.06;97945.44;4456727;32;20432;-77
2023/04/20 04:58:38;;;;;;;20.23;7.97;;;;;;;13.92;51.47;97938.00;4456250;32;20145;-77
2023/04/20 05:01:05;;;;;;;86.85;37.65;;;;;;;14.12;52.02;97937.66;4456595;32;20073;-77
2023/04/20 05:03:32;;;;;;;105.12;45.67;;;;;;;14.20;52.26;97947.59;4456554;32;20093;-77
2023/04/20 05:06:00;;;;;;;117.32;49.35;;;;;;;14.45;52.16;97950.44;4456101;32;20402;-77
2023/04/20 05:08:27;;;;;;;80.07;35.38;;;;;;;14.95;51.16;97951.72;4456380;32;20550;-77
2023/04/20 05:10:53;;;;;;;62.92;29.42;;;;;;;15.54;50.15;97946.28;4456263;32;20086;-77
2023/04/20 05:13:20;;;;;;;39.83;19.48;;;;;;;16.23;48.32;97950.41;4456088;32;20093;-77
2023/04/20 05:15:47;;;;;;;34.22;16.50;;;;;;;16.96;46.49;97957.59;4456506;32;20134;-77
2023/04/20 05:18:14;;;;;;;30.58;14.25;;;;;;;17.59;44.97;97957.41;4456407;32;20359;-77
2023/04/20 05:20:41;;;;;;;23.35;11.70;;;;;;;18.20;42.83;97946.84;4456130;32;20073;-77
2023/04/20 05:23:08;;;;;;;20.52;10.45;;;;;;;18.77;41.73;97954.66;4456422;32;20094;-77
2023/04/20 05:25:35;;;;;;;18.75;9.40;;;;;;;19.21;40.81;97960.81;4456308;32;20092;-77
2023/04/20 05:28:02;;;;;;;14.55;7.15;;;;;;;19.69;40.13;97957.87;4455909;32;20089;-77
2023/04/20 05:30:30;;;;;;;13.65;5.97;;;;;;;20.05;38.97;97968.91;4456346;32;20146;-77
2023/04/20 05:32:57;;;;;;;12.57;5.50;;;;;;;20.49;38.34;97968.66;4456251;32;20718;-78
2023/04/20 05:35:24;;;;;;;10.60;5.55;;;;;;;21.22;37.00;97966.75;4456131;32;20412;-78
2023/04/20 05:37:51;;;;;;;12.88;5.90;;;;;;;21.47;36.29;97970.72;4457460;32;20089;-80
2023/04/20 05:40:17;;;;;;;11.85;5.70;;;;;;;21.76;35.55;97970.75;4456011;32;20142;-80
2023/04/20 05:42:44;;;;;;;11.52;5.93;;;;;;;21.89;35.42;97973.09;4456170;32;20112;-80
2023/04/20 05:45:11;;;;;;;11.77;6.00;;;;;;;21.97;35.19;97973.25;4456300;32;20104;-80
2023/04/20 05:47:38;;;;;;;12.23;6.65;;;;;;;22.14;35.16;97977.00;4455987;32;20089;-80
2023/04/20 05:50:06;;;;;;;12.07;5.85;;;;;;;22.40;35.30;97974.63;4448849;32;235706;-80
2023/04/20 05:52:33;;;;;;;12.40;6.32;;;;;;;22.77;34.83;97977.31;4456206;32;20112;-80
2023/04/20 05:55:00;;;;;;;12.23;6.35;;;;;;;22.81;34.13;97973.41;4455537;32;20088;-79
2023/04/20 05:57:27;;;;;;;11.98;6.35;;;;;;;22.73;33.99;97975.91;4455358;32;20153;-79
2023/04/20 05:59:54;;;;;;;13.35;6.75;;;;;;;22.13;35.42;97980.63;4455015;32;20081;-80
2023/04/20 06:02:21;;;;;;;12.45;6.53;;;;;;;22.06;34.96;97976.84;4455819;32;20152;-80
2023/04/20 06:04:49;;;;;;;13.20;6.70;;;;;;;21.47;36.19;97970.72;4455946;32;20097;-79
2023/04/20 06:07:16;;;;;;;13.52;6.70;;;;;;;20.93;37.57;97971.06;4456120;32;20092;-80
2023/04/20 06:09:43;;;;;;;15.98;6.97;;;;;;;20.90;38.72;97974.81;4455381;32;20076;-79
2023/04/20 06:12:11;;;;;;;13.13;6.90;;;;;;;21.06;38.62;97976.94;4455476;32;20439;-79
2023/04/20 06:14:38;;;;;;;13.10;7.43;;;;;;;21.03;38.35;97975.41;4456004;32;20089;-79
2023/04/20 06:17:04;;;;;;;14.05;7.28;;;;;;;21.04;38.18;97982.31;4455701;32;20089;-79
2023/04/20 06:19:31;;;;;;;14.00;6.93;;;;;;;21.23;38.56;97981.53;4455902;32;20089;-79
2023/04/20 06:21:58;;;;;;;14.07;7.55;;;;;;;21.86;37.59;97984.72;4456044;32;20101;-79
2023/04/20 06:24:26;;;;;;;14.68;7.80;;;;;;;21.41;38.17;97989.63;4455603;32;20093;-79
2023/04/20 06:26:54;;;;;;;15.15;8.13;;;;;;;20.85;38.39;97977.00;4455891;32;20142;-80
2023/04/20 06:29:21;;;;;;;15.38;8.52;;;;;;;21.35;37.88;97991.00;4455567;32;20103;-80
2023/04/20 06:31:48;;;;;;;15.52;8.20;;;;;;;20.95;39.55;97991.00;4456121;32;20130;-81
2023/04/20 06:34:15;;;;;;;16.92;8.52;;;;;;;20.87;39.49;97992.59;4455827;32;20163;-81
2023/04/20 06:36:42;;;;;;;17.25;8.40;;;;;;;21.50;38.21;98001.97;4441563;32;20089;-80
2023/04/20 06:39:12;;;;;;;15.85;8.88;;;;;;;21.83;39.04;98002.56;4455594;32;20077;-80
2023/04/20 06:41:39;;;;;;;15.50;8.57;;;;;;;19.94;42.09;97996.78;4455755;32;20139;-79
2023/04/20 06:44:06;;;;;;;15.30;7.72;;;;;;;21.16;40.95;98001.44;4455216;32;20115;-80
2023/04/20 06:46:33;;;;;;;14.80;8.00;;;;;;;21.14;40.73;98000.69;4455682;32;20089;-79
2023/04/20 06:49:00;;;;;;;17.20;8.57;;;;;;;19.31;45.03;98003.59;4456485;32;20081;-80
2023/04/20 06:51:28;;;;;;;16.60;8.13;;;;;;;20.29;44.15;98011.37;4455268;32;20493;-79
2023/04/20 06:53:55;;;;;;;17.73;8.98;;;;;;;19.64;43.51;98007.97;4455478;32;20413;-79
2023/04/20 06:56:22;;;;;;;15.45;9.07;;;;;;;19.75;44.42;98004.47;4455522;32;20085;-79
2023/04/20 06:58:49;;;;;;;15.73;8.43;;;;;;;19.56;44.62;98007.72;4455561;32;20081;-81
2023/04/20 07:01:16;;;;;;;15.43;8.65;;;;;;;19.50;45.32;97999.53;4456756;32;20124;-81
2023/04/20 07:03:45;;;;;;;16.23;8.23;;;;;;;19.05;44.54;97999.59;4455550;32;20172;-81
2023/04/20 07:06:12;;;;;;;15.63;8.15;;;;;;;19.17;45.39;97998.63;4455042;32;20095;-80
2023/04/20 07:08:39;;;;;;;15.82;7.53;;;;;;;19.28;45.42;98005.63;4455364;32;20325;-80
2023/04/20 07:11:06;;;;;;;14.95;7.85;;;;;;;18.87;46.11;98009.69;4455062;32;20094;-80
2023/04/20 07:13:33;;;;;;;17.52;9.07;;;;;;;18.74;45.17;98001.94;4440936;32;20093;-80
2023/04/20 07:16:00;;;;;;;19.35;8.38;;;;;;;18.71;46.46;98006.56;4455240;32;20088;-80
2023/04/20 07:18:27;;;;;;;16.05;8.15;;;;;;;19.20;45.27;98003.59;4454821;32;20428;-80
2023/04/20 07:20:54;;;;;;;15.95;8.18;;;;;;;19.27;45.02;98014.44;4455241;32;20112;-80
2023/04/20 07:23:21;;;;;;;18.45;8.05;;;;;;;19.03;44.79;98006.69;4455394;32;20104;-81
2023/04/20 07:25:48;;;;;;;13.52;7.30;;;;;;;18.92;45.55;98010.13;4456833;32;20085;-81
2023/04/20 07:28:15;;;;;;;12.50;5.93;;;;;;;18.84;44.73;98017.75;4457154;32;20116;-81
2023/04/20 07:30:42;;;;;;;13.93;6.90;;;;;;;18.84;44.78;98009.09;4457157;32;20380;-81
2023/04/20 07:33:10;;;;;;;15.95;7.18;;;;;;;19.11;44.48;98011.34;4456654;32;20096;-80
2023/04/20 07:35:36;;;;;;;15.00;7.25;;;;;;;19.05;45.33;98018.72;4457222;32;20092;-80
2023/04/20 07:38:03;;;;;;;14.40;7.20;;;;;;;19.05;45.13;98015.28;4461722;32;20081;-81
2023/04/20 07:40:30;;;;;;;14.02;7.20;;;;;;;19.07;45.82;98016.81;4460061;32;20139;-81
2023/04/20 07:42:57;;;;;;;15.27;6.68;;;;;;;18.83;46.01;98018.72;4458407;32;20108;-81
2023/04/20 07:45:24;;;;;;;13.25;7.18;;;;;;;18.14;46.48;98017.81;4445570;32;20504;-80
2023/04/20 07:47:53;;;;;;;11.57;6.28;;;;;;;18.35;48.17;98026.66;4457229;32;20180;-81
2023/04/20 07:50:20;;;;;;;11.88;6.32;;;;;;;18.73;45.04;98018.59;4458087;32;20132;-81
2023/04/20 07:52:47;;;;;;;14.27;6.68;;;;;;;19.02;45.25;98015.50;4459055;32;20052;-80
2023/04/20 07:55:16;;;;;;;12.23;6.15;;;;;;;19.21;43.10;98020.13;4460291;32;20069;-81
2023/04/20 07:57:49;;;;;;;12.48;6.37;;;;;;;19.78;43.13;98022.56;4463105;32;20787;-80
2023/04/20 08:00:16;;;;;;;13.52;6.30;;;;;;;19.50;43.60;98026.53;4460018;32;20167;-81
2023/04/20 08:02:43;;;;;;;14.23;6.50;;;;;;;18.90;44.24;98027.72;4465113;32;20109;-81
2023/04/20 08:05:11;;;;;;;14.80;6.43;;;;;;;19.82;42.85;98021.38;4462797;32;20088;-81
2023/04/20 08:07:38;;;;;;;13.25;5.10;;;;;;;19.56;43.09;98038.31;4446338;32;20081;-80
2023/04/20 08:10:06;;;;;;;11.90;6.12;;;;;;;19.53;41.85;98017.59;4459571;32;20073;-80
2023/04/20 08:12:33;;;;;;;11.63;5.85;;;;;;;18.92;43.10;98023.22;4459132;32;20164;-81
2023/04/20 08:15:03;;;;;;;10.63;5.20;;;;;;;19.96;41.89;98029.88;4458592;32;20414;-80
2023/04/20 08:17:30;;;;;;;12.60;5.85;;;;;;;20.05;42.58;98024.72;4457417;32;20093;-81
2023/04/20 08:19:57;;;;;;;11.32;5.80;;;;;;;19.80;43.90;98025.06;4458543;32;20553;-81
2023/04/20 08:22:28;;;;;;;11.88;4.97;;;;;;;20.80;40.02;98024.56;4459527;32;20168;-81
2023/04/20 08:24:56;;;;;;;11.43;5.65;;;;;;;20.21;42.45;98017.28;4445979;32;20089;-81
2023/04/20 08:27:23;;;;;;;12.93;5.93;;;;;;;21.22;39.70;98021.88;4458699;32;20459;-80
2023/04/20 08:29:50;;;;;;;12.80;6.15;;;;;;;20.93;38.72;98024.38;4460686;32;20108;-80
2023/04/20 08:32:21;;;;;;;12.60;5.57;;;;;;;21.03;39.33;98024.41;4458355;32;20153;-80
2023/04/20 08:34:48;;;;;;;11.27;5.22;;;;;;;21.14;40.29;98023.50;4457450;32;20451;-79
2023/04/20 08:37:16;;;;;;;12.05;5.70;;;;;;;20.45;39.08;98018.84;4459270;32;20491;-80
2023/04/20 08:39:42;;;;;;;12.37;5.50;;;;;;;20.64;38.73;98018.16;4459703;32;20112;-81
2023/04/20 08:42:09;;;;;;;12.85;6.15;;;;;;;20.71;40.34;98021.91;4458516;32;20344;-80
2023/04/20 08:44:36;;;;;;;14.63;5.60;;;;;;;20.88;39.92;98021.31;4456282;32;20096;-81
2023/04/20 08:47:03;;;;;;;13.32;5.87;;;;;;;21.14;38.98;98016.44;4456646;32;20104;-82
2023/04/20 08:49:31;;;;;;;12.48;5.62;;;;;;;21.41;39.21;98028.19;4456869;32;20120;-80
2023/04/20 08:51:58;;;;;;;12.05;5.65;;;;;;;21.89;37.34;98028.25;4443103;32;20674;-81
2023/04/20 08:54:26;;;;;;;13.68;5.75;;;;;;;22.96;35.52;98021.13;4457269;32;20085;-82
2023/04/20 08:56:53;;;;;;;11.95;6.07;;;;;;;22.43;35.08;98017.22;4456630;32;20145;-83
2023/04/20 08:59:20;;;;;;;13.52;6.03;;;;;;;21.25;38.77;98020.75;4456420;32;20101;-82
2023/04/20 09:01:46;;;;;;;11.30;5.80;;;;;;;21.63;37.77;98025.34;4456881;32;20157;-83
2023/04/20 09:04:23;;;;;;;10.52;5.55;;;;;;;22.79;36.65;98023.53;4456317;32;20080;-82
2023/04/20 09:06:53;;;;;;;12.65;5.80;;;;;;;22.43;37.73;98024.28;4457724;32;20073;-83
2023/04/20 09:09:22;;;;;;;11.02;5.75;;;;;;;23.01;34.96;98024.19;4456342;32;20116;-83
2023/04/20 09:12:09;;;;;;;10.68;5.60;;;;;;;23.65;35.03;98016.25;4455885;32;20092;-83
2023/04/20 09:14:43;;;;;;;;;;;;;;;23.04;33.98;98027.34;4458725;32;20107;-83
2023/04/20 09:17:13;;;;;;;12.85;5.75;;;;;;;24.19;32.48;98018.91;4457569;32;19960;-82
2023/04/20 09:19:42;;;;;;;11.57;5.35;;;;;;;23.05;34.90;98022.91;4456510;32;20127;-82
2023/04/20 09:22:09;;;;;;;12.37;5.97;;;;;;;23.68;32.76;98025.66;4456276;32;20142;-81
2023/04/20 09:24:37;;;;;;;11.35;5.62;;;;;;;22.78;34.00;98016.59;4455901;32;20111;-82
2023/04/20 09:27:15;;;;;;;14.23;5.75;;;;;;;21.22;36.87;98021.03;4456204;32;20142;-84
2023/04/20 09:29:43;;;;;;;12.13;5.78;;;;;;;21.33;38.59;98021.78;4456165;32;20163;-84
2023/04/20 09:32:22;;;;;;;14.85;5.53;;;;;;;21.01;38.19;98019.28;4442397;32;20109;-83
2023/04/20 09:34:50;;;;;;;12.13;6.00;;;;;;;21.25;36.79;98026.00;4442171;32;20093;-82
2023/04/20 09:37:16;;;;;;;14.80;6.07;;;;;;;21.87;36.13;98025.78;4456212;32;20564;-82
2023/04/20 09:39:44;;;;;;;12.52;6.07;;;;;;;22.15;37.47;98029.44;4455487;32;20459;-83
2023/04/20 09:42:13;;;;;;;13.98;6.32;;;;;;;23.14;34.12;98029.94;4456174;32;20115;-82
2023/04/20 09:44:40;;;;;;;12.55;6.60;;;;;;;23.41;34.77;98021.25;4442072;32;20088;-82
2023/04/20 09:47:07;;;;;;;11.82;6.35;;;;;;;23.75;34.30;98018.84;4454663;32;20158;-82
2023/04/20 09:49:34;;;;;;;10.75;5.80;;;;;;;24.18;33.59;98023.38;4455998;32;20105;-82
2023/04/20 09:52:02;;;;;;;12.20;6.07;;;;;;;23.44;33.20;98023.56;4442062;32;20105;-81
2023/04/20 09:54:30;;;;;;;13.02;6.07;;;;;;;22.51;35.09;98029.66;4455573;32;20093;-82
2023/04/20 09:57:00;;;;;;;13.80;6.57;;;;;;;23.85;32.64;98029.31;4455852;32;20084;-83
2023/04/20 09:59:28;;;;;;;13.55;5.82;;;;;;;23.63;34.32;98026.13;4455751;32;20119;-83
2023/04/20 10:01:55;;;;;;;11.32;6.20;;;;;;;23.08;34.49;98023.47;4441823;32;20113;-79
2023/04/20 10:04:22;;;;;;;12.15;6.28;;;;;;;21.70;36.17;98023.84;4455868;32;20104;-81
2023/04/20 10:06:54;;;;;;;14.65;6.15;;;;;;;22.05;37.20;98031.19;4455523;32;20491;-81
2023/04/20 10:09:23;;;;;;;13.07;6.15;;;;;;;23.52;33.71;98020.22;4455923;32;20112;-82
2023/04/20 10:11:51;;;;;;;14.23;6.90;;;;;;;23.05;35.86;98021.09;4455559;32;20115;-82
2023/04/20 10:14:25;;;;;;;12.48;6.90;;;;;;;23.60;34.53;98020.31;4455667;32;20092;-82
2023/04/20 10:17:06;;;;;;;12.50;6.20;;;;;;;23.82;32.95;98019.91;4455927;32;20099;-82
2023/04/20 10:19:43;;;;;;;13.43;6.45;;;;;;;24.41;34.52;98017.66;4455750;32;20111;-82
2023/04/20 10:22:13;;;;;;;12.70;6.18;;;;;;;24.66;33.29;98021.28;4455539;32;20773;-82
2023/04/20 10:24:39;;;;;;;13.43;6.32;;;;;;;25.02;31.69;98020.22;4455748;32;20093;-82
2023/04/20 10:27:20;;;;;;;11.70;5.68;;;;;;;22.46;35.31;98024.00;4457464;32;20120;-82
2023/04/20 10:29:47;;;;;;;13.25;6.22;;;;;;;22.99;34.06;98018.25;4455505;32;20109;-81
2023/04/20 10:32:24;;;;;;;15.20;6.37;;;;;;;23.61;33.65;98030.72;4455916;32;20152;-81
2023/04/20 10:35:01;;;;;;;12.73;6.45;;;;;;;23.41;33.33;98013.34;4455461;32;20088;-81
2023/04/20 10:37:28;;;;;;;13.50;6.20;;;;;;;23.71;33.05;98012.19;4455736;32;20149;-81
2023/04/20 10:39:55;;;;;;;11.85;6.05;;;;;;;23.55;34.52;98012.00;4441648;32;20176;-81
2023/04/20 10:42:22;;;;;;;12.43;6.15;;;;;;;23.27;33.12;98000.66;4458691;32;20158;-81
2023/04/20 10:44:53;;;;;;;12.25;5.68;;;;;;;24.61;34.48;98011.19;4449268;32;20135;-81
2023/04/20 10:47:30;;;;;;;11.63;5.72;;;;;;;25.56;29.98;98007.56;4455510;32;20432;-80
2023/04/20 10:50:10;;;;;;;12.20;6.15;;;;;;;24.51;30.91;98003.37;4455320;32;20088;-81
2023/04/20 10:52:38;;;;;;;13.07;5.75;;;;;;;23.06;35.31;97999.06;4455575;32;20107;-80
2023/04/20 10:55:08;;;;;;;13.02;6.20;;;;;;;22.81;34.31;97994.44;4441505;32;20436;-80
2023/04/20 10:57:35;;;;;;;11.95;5.60;;;;;;;23.09;34.45;97990.09;4442564;32;20081;-80
2023/04/20 11:00:15;;;;;;;11.00;5.55;;;;;;;23.58;34.61;97993.25;4466188;32;20157;-81
2023/04/20 11:02:49;;;;;;;14.27;5.57;;;;;;;23.27;33.12;97987.47;4460701;32;20159;-81
2023/04/20 11:05:17;;;;;;;14.25;6.00;;;;;;;22.44;33.61;97979.47;4446913;32;20175;-81
2023/04/20 11:07:52;;;;;;;10.07;5.40;;;;;;;22.89;33.72;97989.34;4460307;32;20077;-81
2023/04/20 11:10:20;;;;;;;10.68;5.37;;;;;;;22.34;35.08;97981.28;4466606;32;20089;-81
2023/04/20 11:12:47;;;;;;;12.73;4.85;;;;;;;24.59;34.18;97988.59;4460417;32;20487;-81
2023/04/20 11:15:15;;;;;;;10.85;5.20;;;;;;;23.73;32.40;97981.28;4460458;32;20100;-81
2023/04/20 11:17:42;;;;;;;10.40;4.72;;;;;;;24.28;32.60;97983.75;4459991;32;20123;-81
2023/04/20 11:20:11;;;;;;;9.80;4.85;;;;;;;23.20;32.89;97978.53;4460179;32;20085;-81
2023/04/20 11:22:39;;;;;;;11.57;4.95;;;;;;;23.29;32.26;97980.28;4460153;32;20085;-80
2023/04/20 11:25:08;;;;;;;9.35;4.28;;;;;;;24.78;31.18;97978.66;4460000;32;20085;-80
2023/04/20 11:27:36;;;;;;;13.62;5.18;;;;;;;24.75;30.46;97975.50;4460106;32;20150;-80